Huntingdon, Canada
Current Conditions -  °F | °C
As of 10:00 PM on Friday 21 Nov 2014 (Local Time) from CYUL Reporting Station
Few Clouds Few Clouds  
Wind Chill: -15°   Ceiling: Unl
Heat Index: -8°   Visibility: 15mi
Dew Point: -14°   Wind: 10mph
Humidity: 63%   Direction: 230°SW
Pressure: 30.33"   Gusts: NA
Location:  45.08°N, 74.18°W
Report Text: CYUL 220300Z 23009KT 15SM FEW045 FEW120 M08/M14 A3033 RMK SC1AC2 SC TR SLP275
Loading
Personal Weather Stations






























Interactive Weather Map New forecast layout! Learn more

10-Day Weather Forecast

Advertisements
Track Severe Weather on mobile